sensor_id;sensor_type;location;lat;lon;timestamp;temperature;humidity
65046;DHT22;54657;52.022;5.534;2022-08-19T00:01:54;20.30;71.40
65046;DHT22;54657;52.022;5.534;2022-08-19T00:04:23;20.30;71.50
65046;DHT22;54657;52.022;5.534;2022-08-19T00:06:49;20.30;71.40
65046;DHT22;54657;52.022;5.534;2022-08-19T00:09:17;20.30;71.50
65046;DHT22;54657;52.022;5.534;2022-08-19T00:11:43;20.20;71.50
65046;DHT22;54657;52.022;5.534;2022-08-19T00:14:11;20.20;71.40
65046;DHT22;54657;52.022;5.534;2022-08-19T00:16:38;20.20;71.40
65046;DHT22;54657;52.022;5.534;2022-08-19T00:19:05;20.10;71.50
65046;DHT22;54657;52.022;5.534;2022-08-19T00:21:30;20.10;71.50
65046;DHT22;54657;52.022;5.534;2022-08-19T00:23:56;20.10;71.60
65046;DHT22;54657;52.022;5.534;2022-08-19T00:26:27;20.10;71.80
65046;DHT22;54657;52.022;5.534;2022-08-19T00:28:53;20.00;71.90
65046;DHT22;54657;52.022;5.534;2022-08-19T00:31:18;20.00;71.90
65046;DHT22;54657;52.022;5.534;2022-08-19T00:33:44;20.10;71.60
65046;DHT22;54657;52.022;5.534;2022-08-19T00:36:10;20.10;71.40
65046;DHT22;54657;52.022;5.534;2022-08-19T00:38:37;20.10;71.50
65046;DHT22;54657;52.022;5.534;2022-08-19T00:41:05;20.10;71.60
65046;DHT22;54657;52.022;5.534;2022-08-19T00:43:31;20.00;71.60
65046;DHT22;54657;52.022;5.534;2022-08-19T00:45:56;20.00;71.60
65046;DHT22;54657;52.022;5.534;2022-08-19T00:48:22;20.00;71.60
65046;DHT22;54657;52.022;5.534;2022-08-19T00:50:50;20.00;71.70
65046;DHT22;54657;52.022;5.534;2022-08-19T00:53:20;20.00;71.60
65046;DHT22;54657;52.022;5.534;2022-08-19T00:55:48;19.90;71.70
65046;DHT22;54657;52.022;5.534;2022-08-19T00:58:17;19.90;71.80
65046;DHT22;54657;52.022;5.534;2022-08-19T01:00:44;19.90;71.80
65046;DHT22;54657;52.022;5.534;2022-08-19T01:03:14;19.90;71.60
65046;DHT22;54657;52.022;5.534;2022-08-19T01:05:41;19.90;71.50
65046;DHT22;54657;52.022;5.534;2022-08-19T01:08:07;19.90;71.50
65046;DHT22;54657;52.022;5.534;2022-08-19T01:10:39;19.90;71.50
65046;DHT22;54657;52.022;5.534;2022-08-19T01:13:06;19.80;71.90
65046;DHT22;54657;52.022;5.534;2022-08-19T01:15:41;19.70;72.40
65046;DHT22;54657;52.022;5.534;2022-08-19T01:18:11;19.70;72.10
65046;DHT22;54657;52.022;5.534;2022-08-19T01:20:37;19.70;71.90
65046;DHT22;54657;52.022;5.534;2022-08-19T01:23:03;19.60;72.00
65046;DHT22;54657;52.022;5.534;2022-08-19T01:25:32;19.70;72.00
65046;DHT22;54657;52.022;5.534;2022-08-19T01:27:58;19.60;72.00
65046;DHT22;54657;52.022;5.534;2022-08-19T01:30:32;19.60;72.10
65046;DHT22;54657;52.022;5.534;2022-08-19T01:32:58;19.60;72.30
65046;DHT22;54657;52.022;5.534;2022-08-19T01:35:29;19.60;72.10
65046;DHT22;54657;52.022;5.534;2022-08-19T01:38:20;19.60;72.10
65046;DHT22;54657;52.022;5.534;2022-08-19T01:40:46;19.60;72.30
65046;DHT22;54657;52.022;5.534;2022-08-19T01:43:12;19.60;71.90
65046;DHT22;54657;52.022;5.534;2022-08-19T01:45:37;19.60;71.90
65046;DHT22;54657;52.022;5.534;2022-08-19T01:48:06;19.60;71.80
65046;DHT22;54657;52.022;5.534;2022-08-19T01:50:33;19.60;71.90
65046;DHT22;54657;52.022;5.534;2022-08-19T01:53:00;19.50;71.90
65046;DHT22;54657;52.022;5.534;2022-08-19T01:55:26;19.50;72.00
65046;DHT22;54657;52.022;5.534;2022-08-19T01:57:56;19.40;72.20
65046;DHT22;54657;52.022;5.534;2022-08-19T02:00:26;19.40;72.30
65046;DHT22;54657;52.022;5.534;2022-08-19T02:02:52;19.30;72.40
65046;DHT22;54657;52.022;5.534;2022-08-19T02:05:18;19.30;72.50
65046;DHT22;54657;52.022;5.534;2022-08-19T02:07:46;19.20;72.70
65046;DHT22;54657;52.022;5.534;2022-08-19T02:10:15;19.10;73.60
65046;DHT22;54657;52.022;5.534;2022-08-19T02:12:41;19.10;73.10
65046;DHT22;54657;52.022;5.534;2022-08-19T02:15:07;19.10;72.80
65046;DHT22;54657;52.022;5.534;2022-08-19T02:17:33;19.10;72.60
65046;DHT22;54657;52.022;5.534;2022-08-19T02:19:59;19.20;72.40
65046;DHT22;54657;52.022;5.534;2022-08-19T02:22:25;19.30;72.00
65046;DHT22;54657;52.022;5.534;2022-08-19T02:24:52;19.40;71.80
65046;DHT22;54657;52.022;5.534;2022-08-19T02:27:18;19.40;71.90
65046;DHT22;54657;52.022;5.534;2022-08-19T02:29:46;19.30;72.00
65046;DHT22;54657;52.022;5.534;2022-08-19T02:32:11;19.20;72.10
65046;DHT22;54657;52.022;5.534;2022-08-19T02:34:37;19.20;72.30
65046;DHT22;54657;52.022;5.534;2022-08-19T02:37:02;19.20;72.30
65046;DHT22;54657;52.022;5.534;2022-08-19T02:39:28;19.20;72.20
65046;DHT22;54657;52.022;5.534;2022-08-19T02:41:53;19.10;72.30
65046;DHT22;54657;52.022;5.534;2022-08-19T02:44:19;19.10;72.30
65046;DHT22;54657;52.022;5.534;2022-08-19T02:46:48;19.10;72.30
65046;DHT22;54657;52.022;5.534;2022-08-19T02:49:15;19.10;72.20
65046;DHT22;54657;52.022;5.534;2022-08-19T02:51:43;19.20;72.10
65046;DHT22;54657;52.022;5.534;2022-08-19T02:54:10;19.10;72.10
65046;DHT22;54657;52.022;5.534;2022-08-19T02:56:37;19.10;72.20
65046;DHT22;54657;52.022;5.534;2022-08-19T02:59:04;19.10;72.30
65046;DHT22;54657;52.022;5.534;2022-08-19T03:01:34;19.10;72.30
65046;DHT22;54657;52.022;5.534;2022-08-19T03:04:02;19.10;72.30
65046;DHT22;54657;52.022;5.534;2022-08-19T03:06:28;19.10;72.30
65046;DHT22;54657;52.022;5.534;2022-08-19T03:08:54;19.10;72.10
65046;DHT22;54657;52.022;5.534;2022-08-19T03:11:25;19.10;72.20
65046;DHT22;54657;52.022;5.534;2022-08-19T03:13:51;19.00;72.20
65046;DHT22;54657;52.022;5.534;2022-08-19T03:16:27;19.00;72.40
65046;DHT22;54657;52.022;5.534;2022-08-19T03:18:53;19.00;72.60
65046;DHT22;54657;52.022;5.534;2022-08-19T03:21:23;18.90;72.60
65046;DHT22;54657;52.022;5.534;2022-08-19T03:23:55;18.90;72.50
65046;DHT22;54657;52.022;5.534;2022-08-19T03:26:21;18.90;72.50
65046;DHT22;54657;52.022;5.534;2022-08-19T03:28:47;18.90;72.40
65046;DHT22;54657;52.022;5.534;2022-08-19T03:31:17;18.90;72.30
65046;DHT22;54657;52.022;5.534;2022-08-19T03:33:43;18.80;72.50
65046;DHT22;54657;52.022;5.534;2022-08-19T03:36:12;18.80;72.50
65046;DHT22;54657;52.022;5.534;2022-08-19T03:38:44;18.70;72.60
65046;DHT22;54657;52.022;5.534;2022-08-19T03:41:13;18.70;72.80
65046;DHT22;54657;52.022;5.534;2022-08-19T03:43:40;18.70;72.90
65046;DHT22;54657;52.022;5.534;2022-08-19T03:46:13;18.60;73.10
65046;DHT22;54657;52.022;5.534;2022-08-19T03:48:39;18.70;73.10
65046;DHT22;54657;52.022;5.534;2022-08-19T03:51:06;18.60;73.60
65046;DHT22;54657;52.022;5.534;2022-08-19T03:53:33;18.50;73.20
65046;DHT22;54657;52.022;5.534;2022-08-19T03:55:59;18.50;73.20
65046;DHT22;54657;52.022;5.534;2022-08-19T03:58:26;18.60;73.20
65046;DHT22;54657;52.022;5.534;2022-08-19T04:00:55;18.60;73.20
65046;DHT22;54657;52.022;5.534;2022-08-19T04:03:21;18.60;73.20
65046;DHT22;54657;52.022;5.534;2022-08-19T04:05:46;18.70;73.10
65046;DHT22;54657;52.022;5.534;2022-08-19T04:08:13;18.60;73.20
65046;DHT22;54657;52.022;5.534;2022-08-19T04:10:41;18.50;73.40
65046;DHT22;54657;52.022;5.534;2022-08-19T04:13:07;18.50;73.40
65046;DHT22;54657;52.022;5.534;2022-08-19T04:15:40;18.50;73.20
65046;DHT22;54657;52.022;5.534;2022-08-19T04:18:07;18.60;73.30
65046;DHT22;54657;52.022;5.534;2022-08-19T04:20:38;18.50;73.80
65046;DHT22;54657;52.022;5.534;2022-08-19T04:23:04;18.50;73.40
65046;DHT22;54657;52.022;5.534;2022-08-19T04:25:35;18.50;73.20
65046;DHT22;54657;52.022;5.534;2022-08-19T04:28:01;18.50;73.20
65046;DHT22;54657;52.022;5.534;2022-08-19T04:30:26;18.50;73.10
65046;DHT22;54657;52.022;5.534;2022-08-19T04:32:52;18.50;73.00
65046;DHT22;54657;52.022;5.534;2022-08-19T04:35:17;18.50;73.10
65046;DHT22;54657;52.022;5.534;2022-08-19T04:37:43;18.50;73.20
65046;DHT22;54657;52.022;5.534;2022-08-19T04:40:09;18.40;73.20
65046;DHT22;54657;52.022;5.534;2022-08-19T04:42:53;18.40;73.30
65046;DHT22;54657;52.022;5.534;2022-08-19T04:45:19;18.40;73.30
65046;DHT22;54657;52.022;5.534;2022-08-19T04:47:44;18.40;73.20
65046;DHT22;54657;52.022;5.534;2022-08-19T04:50:11;18.40;73.10
65046;DHT22;54657;52.022;5.534;2022-08-19T04:52:38;18.40;73.00
65046;DHT22;54657;52.022;5.534;2022-08-19T04:55:09;18.40;73.00
65046;DHT22;54657;52.022;5.534;2022-08-19T04:57:34;18.40;72.90
65046;DHT22;54657;52.022;5.534;2022-08-19T05:00:00;18.40;73.00
65046;DHT22;54657;52.022;5.534;2022-08-19T05:02:26;18.40;73.00
65046;DHT22;54657;52.022;5.534;2022-08-19T05:04:57;18.40;73.00
65046;DHT22;54657;52.022;5.534;2022-08-19T05:07:23;18.40;73.30
65046;DHT22;54657;52.022;5.534;2022-08-19T05:09:49;18.40;73.30
65046;DHT22;54657;52.022;5.534;2022-08-19T05:12:15;18.40;73.30
65046;DHT22;54657;52.022;5.534;2022-08-19T05:14:40;18.40;73.30
65046;DHT22;54657;52.022;5.534;2022-08-19T05:17:06;18.50;73.30
65046;DHT22;54657;52.022;5.534;2022-08-19T05:19:31;18.50;73.30
65046;DHT22;54657;52.022;5.534;2022-08-19T05:22:15;18.50;73.20
65046;DHT22;54657;52.022;5.534;2022-08-19T05:25:03;18.60;73.30
65046;DHT22;54657;52.022;5.534;2022-08-19T05:27:29;18.70;73.20
65046;DHT22;54657;52.022;5.534;2022-08-19T05:29:55;18.70;73.00
65046;DHT22;54657;52.022;5.534;2022-08-19T05:32:20;18.80;72.90
65046;DHT22;54657;52.022;5.534;2022-08-19T05:34:46;18.80;72.70
65046;DHT22;54657;52.022;5.534;2022-08-19T05:37:12;18.80;72.70
65046;DHT22;54657;52.022;5.534;2022-08-19T05:39:38;18.90;72.50
65046;DHT22;54657;52.022;5.534;2022-08-19T05:42:06;19.00;73.10
65046;DHT22;54657;52.022;5.534;2022-08-19T05:44:37;19.00;72.50
65046;DHT22;54657;52.022;5.534;2022-08-19T05:47:04;19.10;72.60
65046;DHT22;54657;52.022;5.534;2022-08-19T05:49:32;19.10;72.60
65046;DHT22;54657;52.022;5.534;2022-08-19T05:52:04;19.10;72.80
65046;DHT22;54657;52.022;5.534;2022-08-19T05:54:31;19.20;73.10
65046;DHT22;54657;52.022;5.534;2022-08-19T05:56:56;19.20;73.10
65046;DHT22;54657;52.022;5.534;2022-08-19T05:59:22;19.30;73.20
65046;DHT22;54657;52.022;5.534;2022-08-19T06:01:50;19.40;73.30
65046;DHT22;54657;52.022;5.534;2022-08-19T06:04:18;19.40;73.50
65046;DHT22;54657;52.022;5.534;2022-08-19T06:06:50;19.50;73.70
65046;DHT22;54657;52.022;5.534;2022-08-19T06:09:17;19.60;74.10
65046;DHT22;54657;52.022;5.534;2022-08-19T06:11:50;19.70;74.10
65046;DHT22;54657;52.022;5.534;2022-08-19T06:14:21;19.80;74.40
65046;DHT22;54657;52.022;5.534;2022-08-19T06:16:46;19.90;74.40
65046;DHT22;54657;52.022;5.534;2022-08-19T06:19:16;19.90;74.40
65046;DHT22;54657;52.022;5.534;2022-08-19T06:21:44;20.00;75.10
65046;DHT22;54657;52.022;5.534;2022-08-19T06:24:13;20.00;75.00
65046;DHT22;54657;52.022;5.534;2022-08-19T06:26:42;20.10;74.70
65046;DHT22;54657;52.022;5.534;2022-08-19T06:29:10;20.10;75.00
65046;DHT22;54657;52.022;5.534;2022-08-19T06:31:40;20.20;75.20
65046;DHT22;54657;52.022;5.534;2022-08-19T06:34:06;20.20;75.10
65046;DHT22;54657;52.022;5.534;2022-08-19T06:36:35;20.20;75.40
65046;DHT22;54657;52.022;5.534;2022-08-19T06:39:08;20.20;75.50
65046;DHT22;54657;52.022;5.534;2022-08-19T06:41:39;20.20;75.80
65046;DHT22;54657;52.022;5.534;2022-08-19T06:44:06;20.30;75.80
65046;DHT22;54657;52.022;5.534;2022-08-19T06:46:32;20.30;75.60
65046;DHT22;54657;52.022;5.534;2022-08-19T06:48:57;20.30;75.80
65046;DHT22;54657;52.022;5.534;2022-08-19T06:51:24;20.30;75.90
65046;DHT22;54657;52.022;5.534;2022-08-19T06:53:52;20.30;76.10
65046;DHT22;54657;52.022;5.534;2022-08-19T06:56:20;20.30;76.40
65046;DHT22;54657;52.022;5.534;2022-08-19T06:58:47;20.30;76.30
65046;DHT22;54657;52.022;5.534;2022-08-19T07:01:17;20.30;76.30
65046;DHT22;54657;52.022;5.534;2022-08-19T07:03:42;20.30;76.30
65046;DHT22;54657;52.022;5.534;2022-08-19T07:06:13;20.40;76.30
65046;DHT22;54657;52.022;5.534;2022-08-19T07:08:41;20.40;76.50
65046;DHT22;54657;52.022;5.534;2022-08-19T07:11:09;20.50;76.20
65046;DHT22;54657;52.022;5.534;2022-08-19T07:13:36;20.40;76.20
65046;DHT22;54657;52.022;5.534;2022-08-19T07:16:10;20.40;76.40
65046;DHT22;54657;52.022;5.534;2022-08-19T07:18:37;20.40;76.80
65046;DHT22;54657;52.022;5.534;2022-08-19T07:21:11;20.40;76.60
65046;DHT22;54657;52.022;5.534;2022-08-19T07:23:37;20.30;77.60
65046;DHT22;54657;52.022;5.534;2022-08-19T07:26:18;20.30;76.80
65046;DHT22;54657;52.022;5.534;2022-08-19T07:28:44;20.40;77.20
65046;DHT22;54657;52.022;5.534;2022-08-19T07:31:13;20.40;77.10
65046;DHT22;54657;52.022;5.534;2022-08-19T07:33:39;20.40;76.90
65046;DHT22;54657;52.022;5.534;2022-08-19T07:36:08;20.40;76.70
65046;DHT22;54657;52.022;5.534;2022-08-19T07:38:37;20.50;76.80
65046;DHT22;54657;52.022;5.534;2022-08-19T07:41:04;20.60;76.70
65046;DHT22;54657;52.022;5.534;2022-08-19T07:43:30;20.50;76.80
65046;DHT22;54657;52.022;5.534;2022-08-19T07:45:55;20.50;76.80
65046;DHT22;54657;52.022;5.534;2022-08-19T07:48:26;20.60;76.80
65046;DHT22;54657;52.022;5.534;2022-08-19T07:50:54;20.60;77.10
65046;DHT22;54657;52.022;5.534;2022-08-19T07:53:21;20.60;76.80
65046;DHT22;54657;52.022;5.534;2022-08-19T07:55:47;20.70;76.50
65046;DHT22;54657;52.022;5.534;2022-08-19T07:58:16;20.80;76.60
65046;DHT22;54657;52.022;5.534;2022-08-19T08:00:43;20.80;76.60
65046;DHT22;54657;52.022;5.534;2022-08-19T08:03:10;20.90;76.30
65046;DHT22;54657;52.022;5.534;2022-08-19T08:05:35;21.00;76.20
65046;DHT22;54657;52.022;5.534;2022-08-19T08:08:28;21.00;76.00
65046;DHT22;54657;52.022;5.534;2022-08-19T08:11:14;21.00;76.00
65046;DHT22;54657;52.022;5.534;2022-08-19T08:13:42;21.10;75.70
65046;DHT22;54657;52.022;5.534;2022-08-19T08:16:07;21.20;75.60
65046;DHT22;54657;52.022;5.534;2022-08-19T08:18:33;21.20;75.50
65046;DHT22;54657;52.022;5.534;2022-08-19T08:21:06;21.30;75.40
65046;DHT22;54657;52.022;5.534;2022-08-19T08:23:32;21.50;75.20
65046;DHT22;54657;52.022;5.534;2022-08-19T08:25:58;21.60;75.00
65046;DHT22;54657;52.022;5.534;2022-08-19T08:28:26;21.60;74.70
65046;DHT22;54657;52.022;5.534;2022-08-19T08:30:52;21.60;74.80
65046;DHT22;54657;52.022;5.534;2022-08-19T08:33:23;21.70;74.70
65046;DHT22;54657;52.022;5.534;2022-08-19T08:35:50;21.80;74.40
65046;DHT22;54657;52.022;5.534;2022-08-19T08:38:15;21.80;74.20
65046;DHT22;54657;52.022;5.534;2022-08-19T08:40:50;21.90;74.10
65046;DHT22;54657;52.022;5.534;2022-08-19T08:43:27;21.90;74.10
65046;DHT22;54657;52.022;5.534;2022-08-19T08:46:03;21.90;74.00
65046;DHT22;54657;52.022;5.534;2022-08-19T08:51:04;22.00;73.90
65046;DHT22;54657;52.022;5.534;2022-08-19T08:53:31;22.10;73.90
65046;DHT22;54657;52.022;5.534;2022-08-19T08:55:57;22.10;73.60
65046;DHT22;54657;52.022;5.534;2022-08-19T09:01:11;22.20;73.60
65046;DHT22;54657;52.022;5.534;2022-08-19T09:03:39;22.20;73.60
65046;DHT22;54657;52.022;5.534;2022-08-19T09:06:23;22.20;73.60
65046;DHT22;54657;52.022;5.534;2022-08-19T09:09:01;22.20;73.10
65046;DHT22;54657;52.022;5.534;2022-08-19T09:11:55;22.30;73.40
65046;DHT22;54657;52.022;5.534;2022-08-19T09:16:58;22.60;72.80
65046;DHT22;54657;52.022;5.534;2022-08-19T09:19:25;22.60;72.80
65046;DHT22;54657;52.022;5.534;2022-08-19T09:21:50;22.60;72.60
65046;DHT22;54657;52.022;5.534;2022-08-19T09:24:16;22.70;72.70
65046;DHT22;54657;52.022;5.534;2022-08-19T09:26:42;22.80;72.70
65046;DHT22;54657;52.022;5.534;2022-08-19T09:29:09;22.70;72.60
65046;DHT22;54657;52.022;5.534;2022-08-19T09:31:35;22.80;72.10
65046;DHT22;54657;52.022;5.534;2022-08-19T09:34:01;22.90;72.20
65046;DHT22;54657;52.022;5.534;2022-08-19T09:36:29;22.90;72.00
65046;DHT22;54657;52.022;5.534;2022-08-19T09:38:58;23.00;71.70
65046;DHT22;54657;52.022;5.534;2022-08-19T09:41:25;23.00;71.60
65046;DHT22;54657;52.022;5.534;2022-08-19T09:43:53;23.10;71.50
65046;DHT22;54657;52.022;5.534;2022-08-19T09:46:22;23.10;71.50
65046;DHT22;54657;52.022;5.534;2022-08-19T09:48:48;23.20;71.00
65046;DHT22;54657;52.022;5.534;2022-08-19T09:51:19;23.30;70.80
65046;DHT22;54657;52.022;5.534;2022-08-19T09:53:46;23.40;70.80
65046;DHT22;54657;52.022;5.534;2022-08-19T09:56:12;23.60;70.40
65046;DHT22;54657;52.022;5.534;2022-08-19T09:58:39;23.60;70.00
65046;DHT22;54657;52.022;5.534;2022-08-19T10:01:06;23.70;69.70
65046;DHT22;54657;52.022;5.534;2022-08-19T10:03:33;23.70;69.60
65046;DHT22;54657;52.022;5.534;2022-08-19T10:06:02;23.80;69.20
65046;DHT22;54657;52.022;5.534;2022-08-19T10:08:31;23.90;69.30
65046;DHT22;54657;52.022;5.534;2022-08-19T10:10:57;23.80;69.20
65046;DHT22;54657;52.022;5.534;2022-08-19T10:13:27;23.90;69.30
65046;DHT22;54657;52.022;5.534;2022-08-19T10:15:56;24.10;68.90
65046;DHT22;54657;52.022;5.534;2022-08-19T10:18:23;24.00;68.80
65046;DHT22;54657;52.022;5.534;2022-08-19T10:20:50;24.10;68.60
65046;DHT22;54657;52.022;5.534;2022-08-19T10:23:19;24.10;68.70
65046;DHT22;54657;52.022;5.534;2022-08-19T10:25:45;24.10;68.70
65046;DHT22;54657;52.022;5.534;2022-08-19T10:28:10;24.10;68.70
65046;DHT22;54657;52.022;5.534;2022-08-19T10:30:38;24.10;68.80
65046;DHT22;54657;52.022;5.534;2022-08-19T10:33:04;24.00;68.70
65046;DHT22;54657;52.022;5.534;2022-08-19T10:35:30;24.10;68.70
65046;DHT22;54657;52.022;5.534;2022-08-19T10:37:56;24.10;68.60
65046;DHT22;54657;52.022;5.534;2022-08-19T10:40:25;24.10;68.50
65046;DHT22;54657;52.022;5.534;2022-08-19T10:42:51;24.10;68.60
65046;DHT22;54657;52.022;5.534;2022-08-19T10:45:17;24.10;68.60
65046;DHT22;54657;52.022;5.534;2022-08-19T10:47:42;24.10;68.60
65046;DHT22;54657;52.022;5.534;2022-08-19T10:50:08;24.30;68.70
65046;DHT22;54657;52.022;5.534;2022-08-19T10:52:52;24.40;68.10
65046;DHT22;54657;52.022;5.534;2022-08-19T10:55:22;24.50;68.00
65046;DHT22;54657;52.022;5.534;2022-08-19T10:58:15;24.60;67.50
65046;DHT22;54657;52.022;5.534;2022-08-19T11:00:41;24.70;67.40
65046;DHT22;54657;52.022;5.534;2022-08-19T11:03:08;24.70;67.40
65046;DHT22;54657;52.022;5.534;2022-08-19T11:05:34;24.80;67.20
65046;DHT22;54657;52.022;5.534;2022-08-19T11:07:59;24.90;67.30
65046;DHT22;54657;52.022;5.534;2022-08-19T11:10:25;25.00;66.80
65046;DHT22;54657;52.022;5.534;2022-08-19T11:12:50;25.00;67.00
65046;DHT22;54657;52.022;5.534;2022-08-19T11:15:19;25.00;67.10
65046;DHT22;54657;52.022;5.534;2022-08-19T11:17:45;25.20;67.20
65046;DHT22;54657;52.022;5.534;2022-08-19T11:20:13;25.20;66.90
65046;DHT22;54657;52.022;5.534;2022-08-19T11:22:40;25.30;66.40
65046;DHT22;54657;52.022;5.534;2022-08-19T11:25:07;25.40;66.60
65046;DHT22;54657;52.022;5.534;2022-08-19T11:27:33;25.40;66.50
65046;DHT22;54657;52.022;5.534;2022-08-19T11:29:59;25.60;66.40
65046;DHT22;54657;52.022;5.534;2022-08-19T11:32:25;25.80;66.00
65046;DHT22;54657;52.022;5.534;2022-08-19T11:34:51;25.80;66.50
65046;DHT22;54657;52.022;5.534;2022-08-19T11:37:17;25.70;65.90
65046;DHT22;54657;52.022;5.534;2022-08-19T11:39:42;25.70;66.10
65046;DHT22;54657;52.022;5.534;2022-08-19T11:42:08;25.70;66.00
65046;DHT22;54657;52.022;5.534;2022-08-19T11:44:52;25.70;65.90
65046;DHT22;54657;52.022;5.534;2022-08-19T11:47:17;25.70;66.20
65046;DHT22;54657;52.022;5.534;2022-08-19T11:49:43;25.80;66.00
65046;DHT22;54657;52.022;5.534;2022-08-19T11:52:09;25.80;65.90
65046;DHT22;54657;52.022;5.534;2022-08-19T11:54:34;25.90;66.10
65046;DHT22;54657;52.022;5.534;2022-08-19T11:57:03;25.80;65.60
65046;DHT22;54657;52.022;5.534;2022-08-19T11:59:28;25.70;66.00
65046;DHT22;54657;52.022;5.534;2022-08-19T12:01:54;25.80;66.10
65046;DHT22;54657;52.022;5.534;2022-08-19T12:04:21;25.90;66.00
65046;DHT22;54657;52.022;5.534;2022-08-19T12:06:47;25.90;65.90
65046;DHT22;54657;52.022;5.534;2022-08-19T12:09:12;26.00;65.60
65046;DHT22;54657;52.022;5.534;2022-08-19T12:11:40;26.10;65.20
65046;DHT22;54657;52.022;5.534;2022-08-19T12:14:08;26.20;65.20
65046;DHT22;54657;52.022;5.534;2022-08-19T12:16:34;26.30;65.20
65046;DHT22;54657;52.022;5.534;2022-08-19T12:19:00;26.30;64.70
65046;DHT22;54657;52.022;5.534;2022-08-19T12:21:30;26.30;64.70
65046;DHT22;54657;52.022;5.534;2022-08-19T12:23:57;26.30;64.90
65046;DHT22;54657;52.022;5.534;2022-08-19T12:26:25;26.40;65.00
65046;DHT22;54657;52.022;5.534;2022-08-19T12:28:51;26.40;64.80
65046;DHT22;54657;52.022;5.534;2022-08-19T12:31:16;26.40;64.50
65046;DHT22;54657;52.022;5.534;2022-08-19T12:33:43;26.50;64.30
65046;DHT22;54657;52.022;5.534;2022-08-19T12:36:12;26.50;64.30
65046;DHT22;54657;52.022;5.534;2022-08-19T12:38:38;26.50;64.00
65046;DHT22;54657;52.022;5.534;2022-08-19T12:41:05;26.60;64.30
65046;DHT22;54657;52.022;5.534;2022-08-19T12:43:32;26.60;64.00
65046;DHT22;54657;52.022;5.534;2022-08-19T12:45:57;26.60;64.00
65046;DHT22;54657;52.022;5.534;2022-08-19T12:48:23;26.50;64.10
65046;DHT22;54657;52.022;5.534;2022-08-19T12:50:48;26.50;64.20
65046;DHT22;54657;52.022;5.534;2022-08-19T12:53:15;26.50;64.30
65046;DHT22;54657;52.022;5.534;2022-08-19T12:55:41;26.50;64.30
65046;DHT22;54657;52.022;5.534;2022-08-19T12:58:08;26.40;64.30
65046;DHT22;54657;52.022;5.534;2022-08-19T13:00:34;26.40;64.20
65046;DHT22;54657;52.022;5.534;2022-08-19T13:03:00;26.40;64.00
65046;DHT22;54657;52.022;5.534;2022-08-19T13:05:28;26.30;64.30
65046;DHT22;54657;52.022;5.534;2022-08-19T13:07:56;26.30;64.20
65046;DHT22;54657;52.022;5.534;2022-08-19T13:10:24;26.10;64.10
65046;DHT22;54657;52.022;5.534;2022-08-19T13:12:51;26.00;64.40
65046;DHT22;54657;52.022;5.534;2022-08-19T13:15:19;25.90;64.30
65046;DHT22;54657;52.022;5.534;2022-08-19T13:17:49;25.90;65.20
65046;DHT22;54657;52.022;5.534;2022-08-19T13:20:18;25.90;66.00
65046;DHT22;54657;52.022;5.534;2022-08-19T13:22:45;25.90;65.50
65046;DHT22;54657;52.022;5.534;2022-08-19T13:25:12;25.90;65.50
65046;DHT22;54657;52.022;5.534;2022-08-19T13:27:39;25.80;65.60
65046;DHT22;54657;52.022;5.534;2022-08-19T13:30:08;25.80;65.70
65046;DHT22;54657;52.022;5.534;2022-08-19T13:32:53;25.70;65.70
65046;DHT22;54657;52.022;5.534;2022-08-19T13:36:05;25.70;65.80
65046;DHT22;54657;52.022;5.534;2022-08-19T13:38:33;25.60;65.50
65046;DHT22;54657;52.022;5.534;2022-08-19T13:41:04;25.50;66.30
65046;DHT22;54657;52.022;5.534;2022-08-19T13:43:30;25.40;67.10
65046;DHT22;54657;52.022;5.534;2022-08-19T13:45:56;25.30;67.00
65046;DHT22;54657;52.022;5.534;2022-08-19T13:48:22;25.30;67.10
65046;DHT22;54657;52.022;5.534;2022-08-19T13:50:48;25.30;67.20
65046;DHT22;54657;52.022;5.534;2022-08-19T13:53:15;25.40;67.20
65046;DHT22;54657;52.022;5.534;2022-08-19T13:55:42;25.40;67.30
65046;DHT22;54657;52.022;5.534;2022-08-19T13:58:08;25.30;67.20
65046;DHT22;54657;52.022;5.534;2022-08-19T14:00:39;25.30;67.40
65046;DHT22;54657;52.022;5.534;2022-08-19T14:03:05;25.30;67.50
65046;DHT22;54657;52.022;5.534;2022-08-19T14:05:31;25.30;67.70
65046;DHT22;54657;52.022;5.534;2022-08-19T14:07:57;25.30;67.60
65046;DHT22;54657;52.022;5.534;2022-08-19T14:10:24;25.20;67.40
65046;DHT22;54657;52.022;5.534;2022-08-19T14:12:53;25.30;67.30
65046;DHT22;54657;52.022;5.534;2022-08-19T14:15:20;25.20;67.90
65046;DHT22;54657;52.022;5.534;2022-08-19T14:17:46;25.10;67.30
65046;DHT22;54657;52.022;5.534;2022-08-19T14:20:14;25.10;67.50
65046;DHT22;54657;52.022;5.534;2022-08-19T14:22:41;25.00;68.00
65046;DHT22;54657;52.022;5.534;2022-08-19T14:25:10;24.90;69.00
65046;DHT22;54657;52.022;5.534;2022-08-19T14:27:38;24.70;69.60
65046;DHT22;54657;52.022;5.534;2022-08-19T14:30:05;24.50;70.00
65046;DHT22;54657;52.022;5.534;2022-08-19T14:32:32;24.40;70.50
65046;DHT22;54657;52.022;5.534;2022-08-19T14:34:58;24.20;71.00
65046;DHT22;54657;52.022;5.534;2022-08-19T14:37:23;24.20;71.20
65046;DHT22;54657;52.022;5.534;2022-08-19T14:39:49;24.20;71.10
65046;DHT22;54657;52.022;5.534;2022-08-19T14:42:14;24.20;71.20
65046;DHT22;54657;52.022;5.534;2022-08-19T14:44:41;24.10;71.30
65046;DHT22;54657;52.022;5.534;2022-08-19T14:47:07;24.10;71.40
65046;DHT22;54657;52.022;5.534;2022-08-19T14:49:33;24.10;71.30
65046;DHT22;54657;52.022;5.534;2022-08-19T14:51:59;24.10;71.40
65046;DHT22;54657;52.022;5.534;2022-08-19T14:54:24;24.00;71.70
65046;DHT22;54657;52.022;5.534;2022-08-19T14:56:50;24.00;71.70
65046;DHT22;54657;52.022;5.534;2022-08-19T14:59:16;23.90;72.00
65046;DHT22;54657;52.022;5.534;2022-08-19T15:01:42;24.00;72.30
65046;DHT22;54657;52.022;5.534;2022-08-19T15:04:08;24.00;72.00
65046;DHT22;54657;52.022;5.534;2022-08-19T15:06:33;24.10;72.10
65046;DHT22;54657;52.022;5.534;2022-08-19T15:08:59;24.10;72.00
65046;DHT22;54657;52.022;5.534;2022-08-19T15:11:27;24.10;72.00
65046;DHT22;54657;52.022;5.534;2022-08-19T15:13:56;24.10;72.00
65046;DHT22;54657;52.022;5.534;2022-08-19T15:16:23;24.00;72.60
65046;DHT22;54657;52.022;5.534;2022-08-19T15:18:53;24.10;72.00
65046;DHT22;54657;52.022;5.534;2022-08-19T15:21:19;24.00;72.10
65046;DHT22;54657;52.022;5.534;2022-08-19T15:23:46;24.10;72.20
65046;DHT22;54657;52.022;5.534;2022-08-19T15:26:13;24.10;72.20
65046;DHT22;54657;52.022;5.534;2022-08-19T15:28:38;24.00;72.00
65046;DHT22;54657;52.022;5.534;2022-08-19T15:31:04;24.00;72.10
65046;DHT22;54657;52.022;5.534;2022-08-19T15:33:35;24.00;72.20
65046;DHT22;54657;52.022;5.534;2022-08-19T15:36:05;24.10;72.80
65046;DHT22;54657;52.022;5.534;2022-08-19T15:38:31;24.00;72.80
65046;DHT22;54657;52.022;5.534;2022-08-19T15:40:58;24.10;72.70
65046;DHT22;54657;52.022;5.534;2022-08-19T15:43:44;24.20;72.50